createdAt,value
2022-08-14T00:01:09.992Z,1.88
2022-08-14T00:03:40.375Z,1.92
2022-08-14T00:06:13.868Z,2.35
2022-08-14T00:08:52.623Z,1.85
2022-08-14T00:11:19.650Z,1.90
2022-08-14T00:13:52.619Z,1.70
2022-08-14T00:16:41.251Z,2.10
2022-08-14T00:19:18.460Z,1.90
2022-08-14T00:21:45.550Z,1.70
2022-08-14T00:24:12.076Z,2.15
2022-08-14T00:26:39.356Z,2.53
2022-08-14T00:29:06.127Z,2.00
2022-08-14T00:31:44.089Z,2.10
2022-08-14T00:34:36.401Z,2.05
2022-08-14T00:36:59.216Z,1.70
2022-08-14T00:39:26.062Z,1.80
2022-08-14T00:41:53.100Z,2.17
2022-08-14T00:44:31.740Z,2.13
2022-08-14T00:46:59.565Z,1.85
2022-08-14T00:49:30.012Z,1.90
2022-08-14T00:51:57.160Z,1.88
2022-08-14T00:54:25.140Z,1.95
2022-08-14T00:56:55.255Z,2.10
2022-08-14T00:59:26.392Z,2.05
2022-08-14T01:01:55.941Z,1.88
2022-08-14T01:04:38.216Z,1.90
2022-08-14T01:07:11.198Z,2.05
2022-08-14T01:09:41.346Z,1.88
2022-08-14T01:12:08.946Z,1.80
2022-08-14T01:14:37.137Z,2.10
2022-08-14T01:17:04.533Z,2.33
2022-08-14T01:19:50.247Z,1.80
2022-08-14T01:22:20.342Z,1.70
2022-08-14T01:24:47.732Z,1.98
2022-08-14T01:27:19.154Z,2.20
2022-08-14T01:30:00.783Z,2.47
2022-08-14T01:32:37.807Z,1.95
2022-08-14T01:35:19.270Z,2.03
2022-08-14T01:37:57.727Z,1.60
2022-08-14T01:40:37.037Z,2.10
2022-08-14T01:43:14.566Z,1.85
2022-08-14T01:45:42.459Z,1.95
2022-08-14T01:48:16.075Z,2.22
2022-08-14T01:50:47.516Z,1.80
2022-08-14T01:53:14.422Z,2.05
2022-08-14T01:55:41.462Z,1.83
2022-08-14T01:58:20.361Z,3.80
2022-08-14T02:00:55.383Z,1.80
2022-08-14T02:03:40.255Z,1.90
2022-08-14T02:06:32.359Z,2.63
2022-08-14T02:08:55.236Z,1.90
2022-08-14T02:11:24.890Z,1.92
2022-08-14T02:13:54.150Z,1.92
2022-08-14T02:16:26.647Z,1.90
2022-08-14T02:21:23.401Z,1.60
2022-08-14T02:23:53.604Z,1.75
2022-08-14T02:26:24.610Z,1.80
2022-08-14T02:28:57.475Z,1.80
2022-08-14T02:31:36.095Z,1.95
2022-08-14T02:34:26.340Z,1.75
2022-08-14T02:37:04.719Z,1.80
2022-08-14T02:39:36.060Z,1.88
2022-08-14T02:42:05.523Z,1.67
2022-08-14T02:44:32.019Z,1.50
2022-08-14T02:47:15.248Z,2.00
2022-08-14T02:49:46.197Z,1.90
2022-08-14T02:52:56.828Z,1.77
2022-08-14T02:55:05.745Z,1.80
2022-08-14T02:57:40.172Z,1.70
2022-08-14T03:00:09.988Z,1.60
2022-08-14T03:02:49.461Z,1.73
2022-08-14T03:05:23.711Z,2.13
2022-08-14T03:07:51.904Z,2.00
2022-08-14T03:10:26.931Z,1.80
2022-08-14T03:12:59.067Z,1.80
2022-08-14T03:15:27.322Z,1.75
2022-08-14T03:17:57.320Z,1.67
2022-08-14T03:20:28.001Z,1.55
2022-08-14T03:22:57.080Z,1.92
2022-08-14T03:25:23.672Z,1.80
2022-08-14T03:27:58.428Z,1.83
2022-08-14T03:30:39.514Z,2.05
2022-08-14T03:33:10.896Z,1.65
2022-08-14T03:36:05.100Z,1.70
2022-08-14T03:39:16.104Z,1.65
2022-08-14T03:41:16.635Z,1.70
2022-08-14T03:43:47.525Z,1.88
2022-08-14T03:46:52.618Z,1.70
2022-08-14T03:49:24.315Z,2.15
2022-08-14T03:51:55.503Z,1.80
2022-08-14T03:54:24.471Z,2.30
2022-08-14T03:56:50.974Z,1.83
2022-08-14T03:59:19.437Z,1.73
2022-08-14T04:01:58.209Z,1.83
2022-08-14T04:04:29.070Z,1.77
2022-08-14T04:06:59.199Z,1.90
2022-08-14T04:09:27.139Z,2.15
2022-08-14T04:11:54.636Z,1.60
2022-08-14T04:14:23.633Z,1.63
2022-08-14T04:16:50.718Z,1.55
2022-08-14T04:19:19.339Z,1.90
2022-08-14T04:22:02.104Z,1.73
2022-08-14T04:24:30.806Z,1.80
2022-08-14T04:27:04.488Z,2.22
2022-08-14T04:29:32.732Z,2.70
2022-08-14T04:32:58.685Z,1.70
2022-08-14T04:34:51.947Z,2.30
2022-08-14T04:40:30.528Z,1.65
2022-08-14T04:43:17.328Z,1.73
2022-08-14T04:45:44.879Z,1.70
2022-08-14T04:48:13.658Z,1.60
2022-08-14T04:51:00.718Z,1.77
2022-08-14T04:53:35.299Z,1.92
2022-08-14T04:56:05.791Z,1.80
2022-08-14T04:58:37.164Z,1.60
2022-08-14T05:01:12.922Z,1.60
2022-08-14T05:03:46.608Z,1.70
2022-08-14T05:06:38.072Z,1.70
2022-08-14T05:09:00.715Z,1.63
2022-08-14T05:11:28.023Z,1.55
2022-08-14T05:14:16.873Z,1.67
2022-08-14T05:16:44.211Z,1.50
2022-08-14T05:19:17.996Z,1.80
2022-08-14T05:21:59.972Z,1.80
2022-08-14T05:24:40.573Z,1.70
2022-08-14T05:27:07.141Z,1.67
2022-08-14T05:29:35.228Z,1.60
2022-08-14T05:32:07.543Z,1.75
2022-08-14T05:34:34.408Z,1.60
2022-08-14T05:37:03.271Z,1.60
2022-08-14T05:39:31.701Z,1.70
2022-08-14T05:41:59.030Z,1.75
2022-08-14T05:44:30.130Z,1.80
2022-08-14T05:46:57.938Z,1.50
2022-08-14T05:49:26.065Z,1.95
2022-08-14T05:52:01.904Z,1.70
2022-08-14T05:54:35.331Z,2.05
2022-08-14T05:57:04.689Z,1.80
2022-08-14T05:59:38.907Z,2.05
2022-08-14T06:02:06.515Z,1.90
2022-08-14T06:04:32.973Z,1.63
2022-08-14T06:06:59.565Z,1.75
2022-08-14T06:09:26.340Z,1.63
2022-08-14T06:11:53.157Z,1.63
2022-08-14T06:14:24.221Z,1.60
2022-08-14T06:16:53.119Z,1.60
2022-08-14T06:19:20.351Z,1.50
2022-08-14T06:21:55.859Z,1.40
2022-08-14T06:24:25.958Z,1.52
2022-08-14T06:26:56.923Z,1.48
2022-08-14T06:29:34.749Z,1.48
2022-08-14T06:32:38.010Z,2.15
2022-08-14T06:35:09.920Z,1.60
2022-08-14T06:37:39.874Z,1.73
2022-08-14T06:40:25.710Z,1.52
2022-08-14T06:42:54.918Z,1.92
2022-08-14T06:45:21.513Z,1.70
2022-08-14T06:47:53.779Z,1.83
2022-08-14T06:50:21.779Z,1.40
2022-08-14T06:52:55.435Z,1.50
2022-08-14T06:55:26.524Z,1.60
2022-08-14T06:57:55.033Z,1.50
2022-08-14T07:00:27.290Z,1.60
2022-08-14T07:03:15.159Z,1.50
2022-08-14T07:05:55.834Z,1.50
2022-08-14T07:08:31.502Z,1.50
2022-08-14T07:11:01.403Z,1.75
2022-08-14T07:13:30.452Z,1.67
2022-08-14T07:15:58.560Z,1.50
2022-08-14T07:18:29.006Z,1.48
2022-08-14T07:20:56.673Z,1.45
2022-08-14T07:23:24.175Z,1.80
2022-08-14T07:25:55.398Z,1.58
2022-08-14T07:28:33.033Z,1.52
2022-08-14T07:31:04.875Z,1.33
2022-08-14T07:36:26.518Z,1.65
2022-08-14T07:38:56.654Z,1.58
2022-08-14T07:41:23.409Z,1.60
2022-08-14T07:43:56.123Z,1.40
2022-08-14T07:46:28.582Z,1.70
2022-08-14T07:48:58.113Z,1.65
2022-08-14T07:51:26.078Z,1.60
2022-08-14T07:54:01.017Z,1.50
2022-08-14T07:56:47.510Z,1.73
2022-08-14T07:59:16.819Z,1.48
2022-08-14T08:01:48.439Z,1.77
2022-08-14T08:04:24.225Z,1.60
2022-08-14T08:06:52.926Z,1.50
2022-08-14T08:09:24.924Z,1.60
2022-08-14T08:12:01.133Z,1.55
2022-08-14T08:14:56.579Z,1.33
2022-08-14T08:17:23.249Z,1.48
2022-08-14T08:19:51.514Z,1.60
2022-08-14T08:22:18.629Z,1.60
2022-08-14T08:24:45.122Z,1.40
2022-08-14T08:27:18.537Z,1.27
2022-08-14T08:29:50.963Z,1.60
2022-08-14T08:32:18.179Z,1.38
2022-08-14T08:34:46.608Z,1.25
2022-08-14T08:37:13.878Z,1.30
2022-08-14T08:40:03.093Z,1.45
2022-08-14T08:42:41.439Z,1.40
2022-08-14T08:45:15.604Z,1.58
2022-08-14T08:47:45.310Z,1.30
2022-08-14T08:53:00.313Z,1.50
2022-08-14T08:55:36.748Z,1.50
2022-08-14T08:58:16.054Z,1.45
2022-08-14T09:03:25.585Z,1.50
2022-08-14T09:05:58.218Z,1.70
2022-08-14T09:08:33.554Z,1.60
2022-08-14T09:11:19.697Z,1.83
2022-08-14T09:13:53.097Z,1.70
2022-08-14T09:16:24.943Z,1.38
2022-08-14T09:18:53.023Z,1.77
2022-08-14T09:21:24.016Z,1.23
2022-08-14T09:24:28.784Z,1.40
2022-08-14T09:26:49.567Z,1.50
2022-08-14T09:29:16.742Z,1.38
2022-08-14T09:31:53.359Z,1.50
2022-08-14T09:34:28.520Z,1.60
2022-08-14T09:37:10.225Z,1.65
2022-08-14T09:39:48.347Z,1.50
2022-08-14T09:42:20.903Z,1.65
2022-08-14T09:45:16.575Z,1.40
2022-08-14T09:47:51.902Z,1.50
2022-08-14T09:50:33.807Z,1.60
2022-08-14T09:53:04.045Z,1.50
2022-08-14T09:55:41.567Z,1.50
2022-08-14T09:58:19.999Z,1.20
2022-08-14T10:00:52.895Z,1.70
2022-08-14T10:03:28.728Z,1.40
2022-08-14T10:06:05.490Z,1.40
2022-08-14T10:09:19.811Z,1.55
2022-08-14T10:11:58.878Z,1.30
2022-08-14T10:14:35.130Z,1.73
2022-08-14T10:17:06.509Z,1.92
2022-08-14T10:19:36.395Z,1.42
2022-08-14T10:23:12.373Z,1.35
2022-08-14T10:24:54.745Z,1.50
2022-08-14T10:27:24.163Z,1.48
2022-08-14T10:29:54.391Z,1.05
2022-08-14T10:32:28.809Z,1.88
2022-08-14T10:35:10.910Z,1.38
2022-08-14T10:37:53.310Z,1.50
2022-08-14T10:40:38.387Z,1.60
2022-08-14T10:43:22.929Z,1.40
2022-08-14T10:46:03.471Z,1.60
2022-08-14T10:49:04.290Z,1.40
2022-08-14T10:51:36.333Z,1.42
2022-08-14T10:54:36.190Z,1.38
2022-08-14T10:56:55.969Z,1.40
2022-08-14T10:59:35.491Z,1.55
2022-08-14T11:02:50.074Z,1.60
2022-08-14T11:05:23.702Z,1.30
2022-08-14T11:07:55.323Z,1.45
2022-08-14T11:10:27.769Z,1.40
2022-08-14T11:12:57.814Z,1.63
2022-08-14T11:15:27.630Z,1.48
2022-08-14T11:17:56.420Z,1.50
2022-08-14T11:20:29.849Z,1.52
2022-08-14T11:23:00.780Z,1.40
2022-08-14T11:25:43.966Z,1.70
2022-08-14T11:28:14.801Z,1.20
2022-08-14T11:30:53.834Z,1.80
2022-08-14T11:33:31.212Z,1.52
2022-08-14T11:36:01.675Z,1.60
2022-08-14T12:59:33.202Z,6.25
2022-08-14T13:02:07.601Z,5.28
2022-08-14T13:04:39.510Z,5.15
2022-08-14T13:07:09.727Z,5.88
2022-08-14T13:09:37.983Z,5.68
2022-08-14T13:12:32.480Z,5.13
2022-08-14T13:14:59.759Z,7.22
2022-08-14T13:17:28.371Z,5.85
2022-08-14T13:19:57.260Z,5.55
2022-08-14T13:22:33.264Z,5.90
2022-08-14T13:25:05.151Z,5.28
2022-08-14T13:27:33.754Z,5.65
2022-08-14T13:30:10.381Z,5.80
2022-08-14T13:32:40.599Z,5.75
2022-08-14T13:35:12.030Z,6.05
2022-08-14T13:37:41.242Z,6.05
2022-08-14T13:40:08.803Z,6.38
2022-08-14T13:42:42.444Z,6.50
2022-08-14T13:45:10.600Z,6.85
2022-08-14T13:47:38.310Z,6.43
2022-08-14T13:50:12.072Z,5.75
2022-08-14T13:52:53.629Z,6.35
2022-08-14T13:55:23.588Z,6.43
2022-08-14T13:58:03.734Z,6.70
2022-08-14T14:00:51.792Z,6.47
2022-08-14T14:03:22.616Z,6.55
2022-08-14T14:05:55.286Z,6.65
2022-08-14T14:08:46.065Z,6.95
2022-08-14T14:11:15.780Z,6.78
2022-08-14T14:13:45.977Z,6.57
2022-08-14T14:16:14.995Z,7.95
2022-08-14T14:18:42.605Z,7.22
2022-08-14T14:21:10.836Z,7.22
2022-08-14T14:23:38.387Z,7.53
2022-08-14T14:26:06.203Z,7.88
2022-08-14T14:28:41.658Z,7.55
2022-08-14T14:31:11.611Z,7.80
2022-08-14T14:33:48.711Z,7.30
2022-08-14T14:36:24.989Z,7.40
2022-08-14T14:39:03.774Z,8.02
2022-08-14T14:41:37.548Z,7.78
2022-08-14T14:44:09.236Z,6.82
2022-08-14T14:46:38.361Z,6.75
2022-08-14T14:49:14.582Z,7.53
2022-08-14T14:51:44.507Z,6.95
2022-08-14T14:54:17.708Z,7.70
2022-08-14T14:56:50.109Z,7.20
2022-08-14T14:59:18.523Z,6.90
2022-08-14T15:01:50.478Z,7.85
2022-08-14T15:04:20.318Z,7.07
2022-08-14T15:06:48.266Z,6.90
2022-08-14T15:09:17.600Z,6.78
2022-08-14T15:11:45.977Z,6.43
2022-08-14T15:14:56.630Z,6.70
2022-08-14T15:17:01.219Z,6.78
2022-08-14T15:19:27.709Z,6.85
2022-08-14T15:21:55.390Z,6.40
2022-08-14T15:24:26.437Z,6.60
2022-08-14T15:26:53.992Z,6.70
2022-08-14T15:29:20.555Z,7.20
2022-08-14T15:31:47.016Z,7.65
2022-08-14T15:34:44.530Z,6.78
2022-08-14T15:37:06.376Z,6.80
2022-08-14T15:39:38.453Z,5.93
2022-08-14T15:42:16.408Z,6.28
2022-08-14T15:44:58.271Z,6.32
2022-08-14T15:47:29.570Z,7.70
2022-08-14T15:50:00.555Z,6.10
2022-08-14T15:52:34.389Z,6.18
2022-08-14T15:55:14.695Z,6.00
2022-08-14T15:58:02.428Z,6.00
2022-08-14T16:00:52.933Z,6.05
2022-08-14T16:03:27.206Z,6.28
2022-08-14T16:06:11.162Z,6.65
2022-08-14T16:08:43.554Z,5.60
2022-08-14T16:11:11.682Z,5.53
2022-08-14T16:13:42.980Z,6.07
2022-08-14T16:16:47.377Z,5.70
2022-08-14T16:19:15.720Z,5.97
2022-08-14T16:22:01.823Z,5.95
2022-08-14T16:24:33.248Z,5.78
2022-08-14T16:27:01.555Z,5.55
2022-08-14T16:29:33.349Z,5.25
2022-08-14T16:32:32.644Z,5.90
2022-08-14T16:34:53.463Z,5.78
2022-08-14T16:37:23.342Z,5.47
2022-08-14T16:39:58.490Z,5.40
2022-08-14T16:43:02.684Z,5.88
2022-08-14T16:45:17.246Z,5.32
2022-08-14T16:47:44.331Z,5.22
2022-08-14T16:50:15.224Z,5.65
2022-08-14T16:53:01.695Z,5.55
2022-08-14T16:55:30.529Z,5.47
2022-08-14T16:57:58.516Z,5.18
2022-08-14T17:00:43.765Z,5.38
2022-08-14T17:03:12.100Z,5.38
2022-08-14T17:05:46.721Z,5.22
2022-08-14T17:08:41.662Z,5.50
2022-08-14T17:11:10.571Z,5.10
2022-08-14T17:13:57.882Z,5.38
2022-08-14T17:16:31.224Z,5.35
2022-08-14T17:19:01.685Z,5.15
2022-08-14T17:21:31.238Z,5.00
2022-08-14T17:24:56.243Z,5.30
2022-08-14T17:27:10.989Z,5.40
2022-08-14T17:29:54.578Z,5.38
2022-08-14T17:32:55.920Z,5.20
2022-08-14T17:35:26.763Z,5.32
2022-08-14T17:38:38.813Z,5.18
2022-08-14T17:41:23.806Z,5.45
2022-08-14T17:43:55.649Z,4.83
2022-08-14T17:46:35.969Z,5.47
2022-08-14T17:49:14.595Z,5.10
2022-08-14T17:52:07.750Z,5.30
2022-08-14T17:55:00.745Z,5.05
2022-08-14T17:57:35.375Z,5.10
2022-08-14T18:00:11.153Z,5.15
2022-08-14T18:02:39.356Z,5.35
2022-08-14T18:05:08.372Z,4.78
2022-08-14T18:07:59.716Z,5.00
2022-08-14T18:10:52.291Z,4.82
2022-08-14T18:13:13.895Z,5.05
2022-08-14T18:15:43.774Z,4.68
2022-08-14T18:18:17.636Z,5.80
2022-08-14T18:21:42.983Z,4.72
2022-08-14T18:23:31.659Z,4.75
2022-08-14T18:25:59.730Z,4.90
2022-08-14T18:28:51.554Z,5.00
2022-08-14T18:31:43.788Z,4.72
2022-08-14T18:34:31.153Z,4.93
2022-08-14T18:37:18.400Z,4.22
2022-08-14T18:40:02.816Z,4.70
2022-08-14T18:42:34.893Z,4.53
2022-08-14T18:45:02.170Z,4.60
2022-08-14T18:48:05.059Z,4.30
2022-08-14T18:50:31.294Z,4.40
2022-08-14T18:53:10.756Z,4.60
2022-08-14T18:55:37.728Z,4.45
2022-08-14T18:58:31.230Z,4.65
2022-08-14T19:01:01.343Z,4.40
2022-08-14T19:03:33.807Z,4.50
2022-08-14T19:08:42.508Z,4.90
2022-08-14T19:11:40.516Z,4.22
2022-08-14T19:14:13.079Z,4.55
2022-08-14T19:19:11.617Z,4.53
2022-08-14T19:21:55.108Z,4.50
2022-08-14T19:24:34.162Z,4.50
2022-08-14T19:27:23.676Z,4.80
2022-08-14T19:30:10.021Z,4.63
2022-08-14T19:32:51.052Z,5.10
2022-08-14T19:35:19.630Z,4.30
2022-08-14T19:37:57.156Z,4.20
2022-08-14T19:40:37.632Z,4.40
2022-08-14T19:43:09.034Z,4.40
2022-08-14T19:45:38.083Z,4.88
2022-08-14T19:48:12.361Z,4.60
2022-08-14T19:50:41.097Z,3.88
2022-08-14T19:53:17.588Z,4.30
2022-08-14T19:55:57.236Z,3.85
2022-08-14T19:58:54.495Z,4.63
2022-08-14T20:01:36.765Z,4.00
2022-08-14T20:04:45.309Z,4.15
2022-08-14T20:06:56.273Z,4.18
2022-08-14T20:11:02.963Z,4.45
2022-08-14T20:12:28.728Z,4.05
2022-08-14T20:15:15.407Z,4.57
2022-08-14T20:17:52.742Z,4.20
2022-08-14T20:20:32.390Z,4.15
2022-08-14T20:23:11.349Z,4.25
2022-08-14T20:25:55.624Z,4.47
2022-08-14T20:28:37.656Z,4.10
2022-08-14T20:31:19.941Z,4.32
2022-08-14T20:34:18.947Z,3.85
2022-08-14T20:37:01.737Z,3.70
2022-08-14T20:39:34.660Z,4.22
2022-08-14T20:42:35.129Z,4.15
2022-08-14T20:45:24.056Z,3.75
2022-08-14T20:47:58.534Z,3.95
2022-08-14T20:50:29.604Z,4.13
2022-08-14T20:52:57.969Z,3.92
2022-08-14T20:55:29.232Z,3.90
2022-08-14T20:58:02.576Z,3.55
2022-08-14T21:00:52.266Z,3.97
2022-08-14T21:03:34.518Z,4.00
2022-08-14T21:06:19.358Z,3.80
2022-08-14T21:08:49.124Z,3.83
2022-08-14T21:11:21.227Z,4.15
2022-08-14T21:14:26.635Z,3.90
2022-08-14T21:16:57.890Z,3.75
2022-08-14T21:19:27.249Z,3.92
2022-08-14T21:21:55.671Z,3.80
2022-08-14T21:24:39.783Z,3.67
2022-08-14T21:27:12.963Z,3.80
2022-08-14T21:29:53.673Z,3.50
2022-08-14T21:32:35.162Z,3.38
2022-08-14T21:35:09.022Z,3.50
2022-08-14T21:37:48.348Z,3.70
2022-08-14T21:40:40.869Z,4.00
2022-08-14T21:43:05.108Z,3.67
2022-08-14T21:45:35.435Z,4.05
2022-08-14T21:48:09.167Z,3.97
2022-08-14T21:51:00.292Z,3.03
2022-08-14T21:53:31.107Z,3.67
2022-08-14T21:55:58.610Z,3.70
2022-08-14T21:58:54.365Z,3.70
2022-08-14T22:01:19.336Z,3.20
2022-08-14T22:03:54.574Z,3.20
2022-08-14T22:06:28.912Z,3.10
2022-08-14T22:08:58.035Z,3.47
2022-08-14T22:11:25.654Z,3.30
2022-08-14T22:13:55.984Z,3.10
2022-08-14T22:17:00.241Z,3.40
2022-08-14T22:19:13.772Z,3.42
2022-08-14T22:21:45.685Z,3.10
2022-08-14T22:27:05.550Z,3.47
2022-08-14T22:29:34.388Z,3.45
2022-08-14T22:32:01.110Z,3.20
2022-08-14T22:37:01.361Z,3.55
2022-08-14T22:40:16.991Z,3.03
2022-08-14T22:42:22.581Z,3.58
2022-08-14T22:44:51.784Z,3.03
2022-08-14T22:47:25.036Z,3.40
2022-08-14T22:50:31.115Z,3.00
2022-08-14T22:52:40.309Z,3.22
2022-08-14T22:55:16.218Z,3.50
2022-08-14T22:57:43.766Z,3.08
2022-08-14T23:00:25.613Z,3.20
2022-08-14T23:03:00.378Z,2.95
2022-08-14T23:05:38.866Z,2.90
2022-08-14T23:08:59.170Z,3.22
2022-08-14T23:10:56.222Z,3.30
2022-08-14T23:13:22.701Z,3.03
2022-08-14T23:15:50.597Z,2.95
2022-08-14T23:18:17.079Z,3.38
2022-08-14T23:20:48.817Z,2.92
2022-08-14T23:23:22.364Z,3.60
2022-08-14T23:25:58.948Z,2.92
2022-08-14T23:28:33.548Z,3.75
2022-08-14T23:31:15.875Z,3.05
2022-08-14T23:34:06.685Z,2.97
2022-08-14T23:36:37.317Z,3.00
2022-08-14T23:39:19.699Z,2.55
2022-08-14T23:41:52.949Z,2.70
2022-08-14T23:44:23.527Z,3.17
2022-08-14T23:46:52.751Z,2.90
2022-08-14T23:49:24.915Z,2.80
2022-08-14T23:51:59.807Z,2.90
2022-08-14T23:54:48.817Z,2.70
2022-08-14T23:57:19.205Z,2.70
2022-08-14T23:59:54.254Z,2.90
